sensor_id;sensor_type;location;lat;lon;timestamp;pressure;altitude;pressure_sealevel;temperature;humidity
21153;BME280;10734;44.792;20.482;2023-02-17T08:20:26;101173.50;;;8.99;nan
21153;BME280;10734;44.792;20.482;2023-02-17T08:22:53;101174.28;;;9.31;nan
21153;BME280;10734;44.792;20.482;2023-02-17T08:25:20;101175.84;;;9.10;nan
21153;BME280;10734;44.792;20.482;2023-02-17T08:27:47;101174.97;;;9.10;nan
21153;BME280;10734;44.792;20.482;2023-02-17T08:30:14;101173.47;;;9.01;nan
21153;BME280;10734;44.792;20.482;2023-02-17T08:32:40;101173.38;;;9.04;nan
21153;BME280;10734;44.792;20.482;2023-02-17T08:35:07;101179.66;;;9.31;nan
21153;BME280;10734;44.792;20.482;2023-02-17T08:37:34;101177.13;;;9.53;nan
21153;BME280;10734;44.792;20.482;2023-02-17T08:40:01;101172.09;;;9.69;nan
21153;BME280;10734;44.792;20.482;2023-02-17T08:42:27;101172.06;;;9.95;nan
21153;BME280;10734;44.792;20.482;2023-02-17T08:44:56;101174.25;;;10.09;nan
21153;BME280;10734;44.792;20.482;2023-02-17T08:47:23;101173.75;;;9.98;nan
21153;BME280;10734;44.792;20.482;2023-02-17T08:49:50;101172.16;;;10.17;nan
21153;BME280;10734;44.792;20.482;2023-02-17T08:52:17;101171.47;;;10.83;nan
21153;BME280;10734;44.792;20.482;2023-02-17T08:54:43;101171.50;;;11.05;nan
21153;BME280;10734;44.792;20.482;2023-02-17T08:57:11;101167.81;;;10.62;nan
21153;BME280;10734;44.792;20.482;2023-02-17T08:59:37;101162.69;;;11.01;nan
21153;BME280;10734;44.792;20.482;2023-02-17T09:02:05;101155.28;;;11.28;nan
21153;BME280;10734;44.792;20.482;2023-02-17T09:04:32;101148.16;;;11.04;nan
21153;BME280;10734;44.792;20.482;2023-02-17T09:06:58;101142.28;;;11.16;nan
21153;BME280;10734;44.792;20.482;2023-02-17T09:09:25;101137.84;;;11.57;nan
21153;BME280;10734;44.792;20.482;2023-02-17T09:11:55;101137.94;;;11.34;nan
21153;BME280;10734;44.792;20.482;2023-02-17T09:14:22;101136.31;;;11.52;nan
21153;BME280;10734;44.792;20.482;2023-02-17T09:16:50;101139.19;;;11.68;nan
21153;BME280;10734;44.792;20.482;2023-02-17T09:19:18;101139.03;;;11.93;nan
21153;BME280;10734;44.792;20.482;2023-02-17T09:21:45;101138.44;;;12.25;nan
21153;BME280;10734;44.792;20.482;2023-02-17T09:24:14;101127.41;;;12.11;nan
21153;BME280;10734;44.792;20.482;2023-02-17T09:26:41;101128.69;;;12.23;nan
21153;BME280;10734;44.792;20.482;2023-02-17T09:29:08;101129.69;;;12.39;nan
21153;BME280;10734;44.792;20.482;2023-02-17T09:31:35;101127.06;;;12.94;nan
21153;BME280;10734;44.792;20.482;2023-02-17T09:34:03;101121.69;;;13.12;nan
21153;BME280;10734;44.792;20.482;2023-02-17T09:36:32;101114.44;;;13.31;nan
21153;BME280;10734;44.792;20.482;2023-02-17T09:38:59;101119.06;;;13.64;nan
21153;BME280;10734;44.792;20.482;2023-02-17T09:41:37;101130.28;;;13.73;nan
21153;BME280;10734;44.792;20.482;2023-02-17T09:44:12;101122.22;;;13.37;nan
21153;BME280;10734;44.792;20.482;2023-02-17T09:46:43;101129.75;;;13.49;nan
21153;BME280;10734;44.792;20.482;2023-02-17T09:49:30;101119.53;;;13.55;nan
21153;BME280;10734;44.792;20.482;2023-02-17T09:57:56;101122.25;;;13.55;nan
21153;BME280;10734;44.792;20.482;2023-02-17T10:00:28;101122.88;;;13.94;nan
21153;BME280;10734;44.792;20.482;2023-02-17T10:06:00;101114.00;;;14.08;nan
21153;BME280;10734;44.792;20.482;2023-02-17T10:08:35;101112.66;;;14.33;nan
21153;BME280;10734;44.792;20.482;2023-02-17T10:13:46;101110.09;;;14.63;nan
21153;BME280;10734;44.792;20.482;2023-02-17T10:16:22;101112.56;;;14.68;nan
21153;BME280;10734;44.792;20.482;2023-02-17T10:18:59;101100.25;;;14.78;nan
21153;BME280;10734;44.792;20.482;2023-02-17T10:21:31;101108.63;;;14.89;nan
21153;BME280;10734;44.792;20.482;2023-02-17T10:24:00;101106.69;;;15.07;nan
21153;BME280;10734;44.792;20.482;2023-02-17T10:32:23;101112.03;;;13.94;nan
21153;BME280;10734;44.792;20.482;2023-02-17T10:35:12;101094.38;;;14.70;nan
21153;BME280;10734;44.792;20.482;2023-02-17T10:38:16;101099.44;;;14.60;nan
21153;BME280;10734;44.792;20.482;2023-02-17T10:40:35;101096.06;;;13.55;nan
21153;BME280;10734;44.792;20.482;2023-02-17T10:43:04;101086.09;;;14.24;nan
21153;BME280;10734;44.792;20.482;2023-02-17T10:45:40;101082.09;;;15.10;nan
21153;BME280;10734;44.792;20.482;2023-02-17T10:48:15;101076.91;;;15.21;nan
21153;BME280;10734;44.792;20.482;2023-02-17T10:50:44;101085.66;;;15.87;nan
21153;BME280;10734;44.792;20.482;2023-02-17T10:53:17;101078.88;;;16.22;nan
21153;BME280;10734;44.792;20.482;2023-02-17T10:55:52;101081.69;;;16.35;nan
21153;BME280;10734;44.792;20.482;2023-02-17T10:58:28;101075.50;;;17.16;nan
21153;BME280;10734;44.792;20.482;2023-02-17T11:00:57;101072.66;;;15.61;nan
21153;BME280;10734;44.792;20.482;2023-02-17T11:03:30;101069.06;;;15.61;nan
21153;BME280;10734;44.792;20.482;2023-02-17T11:06:00;101061.47;;;15.52;nan
21153;BME280;10734;44.792;20.482;2023-02-17T11:11:12;101058.38;;;16.02;nan
21153;BME280;10734;44.792;20.482;2023-02-17T11:13:43;101061.47;;;15.82;nan
21153;BME280;10734;44.792;20.482;2023-02-17T11:16:32;101062.44;;;15.81;nan
21153;BME280;10734;44.792;20.482;2023-02-17T11:19:01;101060.59;;;16.94;nan
21153;BME280;10734;44.792;20.482;2023-02-17T11:21:29;101065.34;;;16.49;nan
21153;BME280;10734;44.792;20.482;2023-02-17T11:24:04;101059.66;;;16.81;nan
21153;BME280;10734;44.792;20.482;2023-02-17T11:26:33;101054.13;;;16.83;nan
21153;BME280;10734;44.792;20.482;2023-02-17T11:29:15;101051.41;;;17.62;nan
21153;BME280;10734;44.792;20.482;2023-02-17T11:31:52;101038.22;;;16.76;nan
21153;BME280;10734;44.792;20.482;2023-02-17T11:34:22;101033.13;;;16.29;nan
21153;BME280;10734;44.792;20.482;2023-02-17T11:39:39;101025.75;;;17.26;nan
21153;BME280;10734;44.792;20.482;2023-02-17T11:42:28;101029.59;;;16.97;nan
21153;BME280;10734;44.792;20.482;2023-02-17T11:44:58;101031.72;;;16.65;nan
21153;BME280;10734;44.792;20.482;2023-02-17T12:06:05;100979.56;;;17.25;nan
21153;BME280;10734;44.792;20.482;2023-02-17T12:11:59;100985.91;;;16.86;nan
21153;BME280;10734;44.792;20.482;2023-02-17T12:14:52;100985.16;;;16.42;nan
21153;BME280;10734;44.792;20.482;2023-02-17T12:26:18;100981.22;;;16.88;nan
21153;BME280;10734;44.792;20.482;2023-02-17T12:28:55;100965.44;;;17.71;nan
21153;BME280;10734;44.792;20.482;2023-02-17T12:36:50;100957.75;;;17.78;nan
21153;BME280;10734;44.792;20.482;2023-02-17T12:39:33;100958.25;;;17.44;nan
21153;BME280;10734;44.792;20.482;2023-02-17T12:42:13;100950.63;;;18.01;nan
21153;BME280;10734;44.792;20.482;2023-02-17T12:44:45;100955.81;;;18.16;nan
21153;BME280;10734;44.792;20.482;2023-02-17T12:50:20;100957.19;;;17.47;nan
21153;BME280;10734;44.792;20.482;2023-02-17T12:52:52;100957.22;;;17.07;nan
21153;BME280;10734;44.792;20.482;2023-02-17T12:55:29;100940.22;;;16.91;nan
21153;BME280;10734;44.792;20.482;2023-02-17T12:58:25;100933.06;;;17.92;nan
21153;BME280;10734;44.792;20.482;2023-02-17T13:01:02;100931.78;;;17.98;nan
21153;BME280;10734;44.792;20.482;2023-02-17T13:03:34;100917.72;;;17.65;nan
21153;BME280;10734;44.792;20.482;2023-02-17T13:06:36;100921.66;;;17.87;nan
21153;BME280;10734;44.792;20.482;2023-02-17T13:09:36;100915.19;;;17.75;nan
21153;BME280;10734;44.792;20.482;2023-02-17T13:14:50;100907.81;;;17.52;nan
21153;BME280;10734;44.792;20.482;2023-02-17T13:17:39;100916.94;;;18.02;nan
21153;BME280;10734;44.792;20.482;2023-02-17T13:22:33;100909.38;;;17.43;nan
21153;BME280;10734;44.792;20.482;2023-02-17T13:25:00;100904.53;;;17.08;nan
21153;BME280;10734;44.792;20.482;2023-02-17T13:32:37;100912.13;;;16.90;nan
21153;BME280;10734;44.792;20.482;2023-02-17T13:37:54;100905.91;;;16.48;nan
21153;BME280;10734;44.792;20.482;2023-02-17T13:42:55;100911.41;;;16.74;nan
21153;BME280;10734;44.792;20.482;2023-02-17T13:48:22;100902.59;;;17.23;nan
21153;BME280;10734;44.792;20.482;2023-02-17T13:50:52;100897.63;;;16.77;nan
21153;BME280;10734;44.792;20.482;2023-02-17T13:53:26;100887.31;;;16.82;nan
21153;BME280;10734;44.792;20.482;2023-02-17T13:55:56;100889.63;;;17.14;nan
21153;BME280;10734;44.792;20.482;2023-02-17T13:58:27;100881.66;;;17.49;nan
21153;BME280;10734;44.792;20.482;2023-02-17T14:00:55;100874.59;;;18.09;nan
21153;BME280;10734;44.792;20.482;2023-02-17T14:03:27;100884.97;;;17.16;nan
21153;BME280;10734;44.792;20.482;2023-02-17T14:05:57;100879.50;;;16.90;nan
21153;BME280;10734;44.792;20.482;2023-02-17T14:08:37;100882.22;;;17.29;nan
21153;BME280;10734;44.792;20.482;2023-02-17T14:11:11;100876.34;;;17.22;nan
21153;BME280;10734;44.792;20.482;2023-02-17T14:13:41;100873.44;;;17.12;nan
21153;BME280;10734;44.792;20.482;2023-02-17T14:16:26;100871.06;;;17.83;nan
21153;BME280;10734;44.792;20.482;2023-02-17T14:19:04;100875.13;;;17.39;nan
21153;BME280;10734;44.792;20.482;2023-02-17T14:21:33;100872.09;;;16.92;nan
21153;BME280;10734;44.792;20.482;2023-02-17T14:24:01;100870.47;;;17.02;nan
21153;BME280;10734;44.792;20.482;2023-02-17T14:28:57;100867.09;;;17.50;nan
21153;BME280;10734;44.792;20.482;2023-02-17T14:31:24;100862.50;;;17.50;nan
21153;BME280;10734;44.792;20.482;2023-02-17T14:34:02;100866.41;;;17.59;nan
21153;BME280;10734;44.792;20.482;2023-02-17T14:36:38;100869.38;;;17.31;nan
21153;BME280;10734;44.792;20.482;2023-02-17T14:39:07;100864.94;;;17.17;nan
21153;BME280;10734;44.792;20.482;2023-02-17T14:41:38;100866.22;;;17.24;nan
21153;BME280;10734;44.792;20.482;2023-02-17T14:44:05;100863.06;;;17.17;nan
21153;BME280;10734;44.792;20.482;2023-02-17T14:46:33;100857.63;;;17.17;nan
21153;BME280;10734;44.792;20.482;2023-02-17T14:49:00;100860.69;;;17.13;nan
21153;BME280;10734;44.792;20.482;2023-02-17T14:51:33;100853.69;;;17.47;nan
21153;BME280;10734;44.792;20.482;2023-02-17T14:54:15;100859.91;;;17.11;nan
21153;BME280;10734;44.792;20.482;2023-02-17T14:56:47;100853.78;;;17.45;nan
21153;BME280;10734;44.792;20.482;2023-02-17T14:59:16;100853.44;;;17.63;nan
21153;BME280;10734;44.792;20.482;2023-02-17T15:01:43;100850.88;;;17.36;nan
21153;BME280;10734;44.792;20.482;2023-02-17T15:04:10;100851.41;;;17.28;nan
21153;BME280;10734;44.792;20.482;2023-02-17T15:06:43;100856.44;;;17.96;nan
21153;BME280;10734;44.792;20.482;2023-02-17T15:09:29;100853.91;;;17.31;nan
21153;BME280;10734;44.792;20.482;2023-02-17T15:11:57;100844.09;;;17.41;nan
21153;BME280;10734;44.792;20.482;2023-02-17T15:14:24;100842.19;;;17.05;nan
21153;BME280;10734;44.792;20.482;2023-02-17T15:16:50;100847.88;;;16.62;nan
21153;BME280;10734;44.792;20.482;2023-02-17T15:19:17;100842.94;;;17.07;nan
21153;BME280;10734;44.792;20.482;2023-02-17T15:21:47;100841.81;;;17.48;nan
21153;BME280;10734;44.792;20.482;2023-02-17T15:24:18;100844.91;;;17.05;nan
21153;BME280;10734;44.792;20.482;2023-02-17T15:26:45;100846.19;;;16.47;nan
21153;BME280;10734;44.792;20.482;2023-02-17T15:29:19;100842.88;;;16.69;nan
21153;BME280;10734;44.792;20.482;2023-02-17T15:31:46;100846.63;;;16.93;nan
21153;BME280;10734;44.792;20.482;2023-02-17T15:34:15;100849.66;;;16.76;nan
21153;BME280;10734;44.792;20.482;2023-02-17T15:36:43;100852.19;;;16.52;nan
21153;BME280;10734;44.792;20.482;2023-02-17T15:39:11;100857.25;;;16.31;nan
21153;BME280;10734;44.792;20.482;2023-02-17T15:41:39;100853.88;;;16.40;nan
21153;BME280;10734;44.792;20.482;2023-02-17T15:44:13;100843.59;;;16.18;nan
21153;BME280;10734;44.792;20.482;2023-02-17T15:46:41;100840.16;;;15.46;nan
21153;BME280;10734;44.792;20.482;2023-02-17T15:49:10;100830.66;;;15.25;nan
21153;BME280;10734;44.792;20.482;2023-02-17T15:51:37;100839.47;;;15.00;nan
21153;BME280;10734;44.792;20.482;2023-02-17T15:54:04;100835.47;;;14.77;nan
21153;BME280;10734;44.792;20.482;2023-02-17T15:56:51;100834.44;;;14.33;nan
21153;BME280;10734;44.792;20.482;2023-02-17T15:59:21;100835.88;;;14.25;nan
21153;BME280;10734;44.792;20.482;2023-02-17T16:01:48;100836.88;;;14.08;nan
21153;BME280;10734;44.792;20.482;2023-02-17T16:04:18;100832.53;;;13.73;nan
21153;BME280;10734;44.792;20.482;2023-02-17T16:06:45;100831.47;;;13.60;nan
21153;BME280;10734;44.792;20.482;2023-02-17T16:09:12;100834.34;;;13.57;nan
21153;BME280;10734;44.792;20.482;2023-02-17T16:11:48;100837.81;;;13.43;nan
21153;BME280;10734;44.792;20.482;2023-02-17T16:14:27;100827.66;;;13.31;nan
21153;BME280;10734;44.792;20.482;2023-02-17T16:16:55;100827.31;;;13.21;nan
21153;BME280;10734;44.792;20.482;2023-02-17T16:19:22;100830.34;;;13.15;nan
21153;BME280;10734;44.792;20.482;2023-02-17T16:21:49;100835.69;;;12.99;nan
21153;BME280;10734;44.792;20.482;2023-02-17T16:24:16;100839.69;;;12.92;nan
21153;BME280;10734;44.792;20.482;2023-02-17T16:26:43;100834.59;;;12.86;nan
21153;BME280;10734;44.792;20.482;2023-02-17T16:29:15;100844.00;;;12.79;nan
21153;BME280;10734;44.792;20.482;2023-02-17T16:31:42;100839.16;;;12.68;nan
21153;BME280;10734;44.792;20.482;2023-02-17T16:34:16;100852.28;;;12.59;nan
21153;BME280;10734;44.792;20.482;2023-02-17T16:36:43;100846.31;;;12.52;nan
21153;BME280;10734;44.792;20.482;2023-02-17T16:39:12;100848.38;;;12.47;nan
